sensor_id;sensor_type;location;lat;lon;timestamp;pressure;altitude;pressure_sealevel;temperature;humidity
18819;BME280;9537;45.594;9.294;2022-09-09T00:00:54;99277.22;;;24.69;66.48
18819;BME280;9537;45.594;9.294;2022-09-09T00:02:06;99272.91;;;24.68;66.34
18819;BME280;9537;45.594;9.294;2022-09-09T00:03:17;99272.09;;;24.68;66.44
18819;BME280;9537;45.594;9.294;2022-09-09T00:04:26;99271.81;;;24.69;66.42
18819;BME280;9537;45.594;9.294;2022-09-09T00:05:32;99270.22;;;24.68;66.19
18819;BME280;9537;45.594;9.294;2022-09-09T00:06:44;99270.22;;;24.68;66.20
18819;BME280;9537;45.594;9.294;2022-09-09T00:07:49;99271.81;;;24.69;66.26
18819;BME280;9537;45.594;9.294;2022-09-09T00:08:59;99269.41;;;24.68;66.20
18819;BME280;9537;45.594;9.294;2022-09-09T00:10:09;99274.81;;;24.68;66.13
18819;BME280;9537;45.594;9.294;2022-09-09T00:11:23;99267.78;;;24.67;65.89
18819;BME280;9537;45.594;9.294;2022-09-09T00:12:33;99270.50;;;24.67;66.10
18819;BME280;9537;45.594;9.294;2022-09-09T00:13:39;99266.72;;;24.68;65.64
18819;BME280;9537;45.594;9.294;2022-09-09T00:14:51;99265.91;;;24.67;65.83
18819;BME280;9537;45.594;9.294;2022-09-09T00:15:57;99268.88;;;24.66;65.87
18819;BME280;9537;45.594;9.294;2022-09-09T00:17:06;99264.81;;;24.63;65.93
18819;BME280;9537;45.594;9.294;2022-09-09T00:18:17;99266.44;;;24.64;65.86
18819;BME280;9537;45.594;9.294;2022-09-09T00:19:26;99262.13;;;24.63;66.29
18819;BME280;9537;45.594;9.294;2022-09-09T00:20:32;99267.25;;;24.65;65.98
18819;BME280;9537;45.594;9.294;2022-09-09T00:21:39;99261.06;;;24.64;65.83
18819;BME280;9537;45.594;9.294;2022-09-09T00:22:48;99258.34;;;24.64;66.25
18819;BME280;9537;45.594;9.294;2022-09-09T00:23:53;99252.41;;;24.62;66.17
18819;BME280;9537;45.594;9.294;2022-09-09T00:24:59;99257.81;;;24.57;66.36
18819;BME280;9537;45.594;9.294;2022-09-09T00:26:09;99260.28;;;24.54;66.48
18819;BME280;9537;45.594;9.294;2022-09-09T00:27:23;99261.06;;;24.54;66.26
18819;BME280;9537;45.594;9.294;2022-09-09T00:28:32;99265.13;;;24.52;66.43
18819;BME280;9537;45.594;9.294;2022-09-09T00:29:41;99264.06;;;24.47;66.63
18819;BME280;9537;45.594;9.294;2022-09-09T00:30:44;99264.31;;;24.46;66.64
18819;BME280;9537;45.594;9.294;2022-09-09T00:31:49;99261.91;;;24.44;66.89
18819;BME280;9537;45.594;9.294;2022-09-09T00:32:58;99262.44;;;24.41;67.09
18819;BME280;9537;45.594;9.294;2022-09-09T00:34:05;99254.59;;;24.40;67.07
18819;BME280;9537;45.594;9.294;2022-09-09T00:35:17;99248.66;;;24.38;67.24
18819;BME280;9537;45.594;9.294;2022-09-09T00:36:21;99249.75;;;24.37;67.04
18819;BME280;9537;45.594;9.294;2022-09-09T00:37:26;99247.34;;;24.35;67.28
18819;BME280;9537;45.594;9.294;2022-09-09T00:38:32;99244.91;;;24.34;67.17
18819;BME280;9537;45.594;9.294;2022-09-09T00:39:37;99234.38;;;24.32;67.07
18819;BME280;9537;45.594;9.294;2022-09-09T00:40:49;99235.75;;;24.30;67.19
18819;BME280;9537;45.594;9.294;2022-09-09T00:41:57;99234.66;;;24.31;67.17
18819;BME280;9537;45.594;9.294;2022-09-09T00:43:12;99227.91;;;24.33;66.96
18819;BME280;9537;45.594;9.294;2022-09-09T00:44:27;99229.50;;;24.34;66.98
18819;BME280;9537;45.594;9.294;2022-09-09T00:46:01;99226.56;;;24.36;66.86
18819;BME280;9537;45.594;9.294;2022-09-09T00:47:19;99231.94;;;24.36;66.65
18819;BME280;9537;45.594;9.294;2022-09-09T00:48:33;99225.75;;;24.35;66.81
18819;BME280;9537;45.594;9.294;2022-09-09T00:49:45;99223.31;;;24.34;67.12
18819;BME280;9537;45.594;9.294;2022-09-09T00:50:55;99229.81;;;24.33;67.27
18819;BME280;9537;45.594;9.294;2022-09-09T00:52:04;99225.22;;;24.28;67.24
18819;BME280;9537;45.594;9.294;2022-09-09T00:53:20;99221.47;;;24.24;67.31
18819;BME280;9537;45.594;9.294;2022-09-09T00:54:33;99219.31;;;24.21;67.43
18819;BME280;9537;45.594;9.294;2022-09-09T00:55:45;99219.56;;;24.14;67.66
18819;BME280;9537;45.594;9.294;2022-09-09T00:56:56;99217.41;;;24.11;67.99
18819;BME280;9537;45.594;9.294;2022-09-09T00:58:00;99215.25;;;24.08;67.91
18819;BME280;9537;45.594;9.294;2022-09-09T00:59:11;99214.19;;;24.04;68.05
18819;BME280;9537;45.594;9.294;2022-09-09T01:00:22;99215.25;;;24.03;67.99
18819;BME280;9537;45.594;9.294;2022-09-09T01:01:25;99210.41;;;24.00;68.11
18819;BME280;9537;45.594;9.294;2022-09-09T01:02:28;99212.06;;;23.96;68.39
18819;BME280;9537;45.594;9.294;2022-09-09T01:03:35;99199.63;;;23.95;68.33
18819;BME280;9537;45.594;9.294;2022-09-09T01:04:36;99205.03;;;23.95;68.43
18819;BME280;9537;45.594;9.294;2022-09-09T01:05:43;99203.41;;;23.94;68.36
18819;BME280;9537;45.594;9.294;2022-09-09T01:06:48;99195.88;;;23.91;69.10
18819;BME280;9537;45.594;9.294;2022-09-09T01:07:58;99199.13;;;23.88;69.69
18819;BME280;9537;45.594;9.294;2022-09-09T01:09:07;99189.13;;;23.83;69.77
18819;BME280;9537;45.594;9.294;2022-09-09T01:10:23;99191.56;;;23.79;70.31
18819;BME280;9537;45.594;9.294;2022-09-09T01:11:33;99195.59;;;23.77;70.42
18819;BME280;9537;45.594;9.294;2022-09-09T01:12:41;99194.25;;;23.74;70.41
18819;BME280;9537;45.594;9.294;2022-09-09T01:13:45;99199.63;;;23.69;70.61
18819;BME280;9537;45.594;9.294;2022-09-09T01:14:50;99199.38;;;23.71;70.68
18819;BME280;9537;45.594;9.294;2022-09-09T01:15:53;99194.22;;;23.69;70.68
18819;BME280;9537;45.594;9.294;2022-09-09T01:16:58;99195.31;;;23.68;70.60
18819;BME280;9537;45.594;9.294;2022-09-09T01:18:04;99195.31;;;23.68;70.45
18819;BME280;9537;45.594;9.294;2022-09-09T01:19:18;99192.06;;;23.66;70.73
18819;BME280;9537;45.594;9.294;2022-09-09T01:20:23;99186.69;;;23.66;70.76
18819;BME280;9537;45.594;9.294;2022-09-09T01:21:35;99187.75;;;23.65;70.48
18819;BME280;9537;45.594;9.294;2022-09-09T01:22:45;99188.84;;;23.64;70.71
18819;BME280;9537;45.594;9.294;2022-09-09T01:24:05;99188.06;;;23.64;70.74
18819;BME280;9537;45.594;9.294;2022-09-09T01:25:23;99181.81;;;23.63;70.53
18819;BME280;9537;45.594;9.294;2022-09-09T01:26:30;99184.00;;;23.61;70.38
18819;BME280;9537;45.594;9.294;2022-09-09T01:27:34;99190.47;;;23.60;70.86
18819;BME280;9537;45.594;9.294;2022-09-09T01:28:37;99194.25;;;23.59;70.84
18819;BME280;9537;45.594;9.294;2022-09-09T01:29:39;99195.34;;;23.58;70.96
18819;BME280;9537;45.594;9.294;2022-09-09T01:30:41;99199.63;;;23.59;70.56
18819;BME280;9537;45.594;9.294;2022-09-09T01:31:52;99196.66;;;23.55;70.88
18819;BME280;9537;45.594;9.294;2022-09-09T01:32:56;99190.44;;;23.55;70.76
18819;BME280;9537;45.594;9.294;2022-09-09T01:34:00;99188.59;;;23.55;70.60
18819;BME280;9537;45.594;9.294;2022-09-09T01:35:03;99189.66;;;23.54;70.52
18819;BME280;9537;45.594;9.294;2022-09-09T01:36:08;99179.94;;;23.53;70.76
18819;BME280;9537;45.594;9.294;2022-09-09T01:37:13;99178.59;;;23.56;70.56
18819;BME280;9537;45.594;9.294;2022-09-09T01:38:15;99181.03;;;23.57;70.64
18819;BME280;9537;45.594;9.294;2022-09-09T01:39:17;99176.16;;;23.54;70.79
18819;BME280;9537;45.594;9.294;2022-09-09T01:40:19;99168.63;;;23.56;70.66
18819;BME280;9537;45.594;9.294;2022-09-09T01:41:20;99172.13;;;23.57;70.56
18819;BME280;9537;45.594;9.294;2022-09-09T01:42:23;99183.19;;;23.55;70.65
18819;BME280;9537;45.594;9.294;2022-09-09T01:43:25;99182.66;;;23.58;70.61
18819;BME280;9537;45.594;9.294;2022-09-09T01:44:29;99189.94;;;23.58;70.48
18819;BME280;9537;45.594;9.294;2022-09-09T01:45:31;99190.72;;;23.53;70.35
18819;BME280;9537;45.594;9.294;2022-09-09T01:46:33;99183.97;;;23.46;70.69
18819;BME280;9537;45.594;9.294;2022-09-09T01:47:34;99189.13;;;23.47;70.57
18819;BME280;9537;45.594;9.294;2022-09-09T01:48:37;99194.25;;;23.44;70.95
18819;BME280;9537;45.594;9.294;2022-09-09T01:49:38;99188.31;;;23.42;70.83
18819;BME280;9537;45.594;9.294;2022-09-09T01:50:40;99188.84;;;23.44;70.85
18819;BME280;9537;45.594;9.294;2022-09-09T01:51:42;99191.00;;;23.42;70.90
18819;BME280;9537;45.594;9.294;2022-09-09T01:52:48;99189.09;;;23.42;70.66
18819;BME280;9537;45.594;9.294;2022-09-09T01:53:50;99188.84;;;23.44;70.51
18819;BME280;9537;45.594;9.294;2022-09-09T01:54:52;99176.72;;;23.36;70.72
18819;BME280;9537;45.594;9.294;2022-09-09T01:56:01;99176.72;;;23.41;70.82
18819;BME280;9537;45.594;9.294;2022-09-09T01:57:11;99175.38;;;23.38;70.52
18819;BME280;9537;45.594;9.294;2022-09-09T01:58:24;99175.63;;;23.42;70.67
18819;BME280;9537;45.594;9.294;2022-09-09T01:59:48;99182.91;;;23.42;70.60
18819;BME280;9537;45.594;9.294;2022-09-09T02:00:56;99196.38;;;23.42;70.71
18819;BME280;9537;45.594;9.294;2022-09-09T02:02:10;99200.13;;;23.41;70.50
18819;BME280;9537;45.594;9.294;2022-09-09T02:03:20;99191.78;;;23.37;70.64
18819;BME280;9537;45.594;9.294;2022-09-09T02:04:35;99192.88;;;23.36;70.90
18819;BME280;9537;45.594;9.294;2022-09-09T02:05:38;99191.78;;;23.37;70.94
18819;BME280;9537;45.594;9.294;2022-09-09T02:06:41;99184.25;;;23.39;70.87
18819;BME280;9537;45.594;9.294;2022-09-09T02:07:47;99182.09;;;23.36;70.74
18819;BME280;9537;45.594;9.294;2022-09-09T02:08:51;99180.75;;;23.38;70.49
18819;BME280;9537;45.594;9.294;2022-09-09T02:09:59;99184.25;;;23.39;70.68
18819;BME280;9537;45.594;9.294;2022-09-09T02:11:06;99184.50;;;23.37;70.85
18819;BME280;9537;45.594;9.294;2022-09-09T02:12:12;99191.53;;;23.38;70.93
18819;BME280;9537;45.594;9.294;2022-09-09T02:13:19;99181.00;;;23.37;71.00
18819;BME280;9537;45.594;9.294;2022-09-09T02:14:23;99183.72;;;23.37;71.04
18819;BME280;9537;45.594;9.294;2022-09-09T02:15:30;99185.84;;;23.35;70.84
18819;BME280;9537;45.594;9.294;2022-09-09T02:16:37;99184.78;;;23.36;70.74
18819;BME280;9537;45.594;9.294;2022-09-09T02:17:41;99189.09;;;23.37;70.91
18819;BME280;9537;45.594;9.294;2022-09-09T02:18:46;99189.09;;;23.37;70.63
18819;BME280;9537;45.594;9.294;2022-09-09T02:19:51;99196.91;;;23.33;70.84
18819;BME280;9537;45.594;9.294;2022-09-09T02:20:56;99199.88;;;23.32;71.33
18819;BME280;9537;45.594;9.294;2022-09-09T02:22:00;99202.84;;;23.30;71.52
18819;BME280;9537;45.594;9.294;2022-09-09T02:23:02;99202.84;;;23.30;71.64
18819;BME280;9537;45.594;9.294;2022-09-09T02:24:08;99201.22;;;23.29;71.44
18819;BME280;9537;45.594;9.294;2022-09-09T02:25:13;99194.75;;;23.30;71.40
18819;BME280;9537;45.594;9.294;2022-09-09T02:26:17;99207.69;;;23.33;71.46
18819;BME280;9537;45.594;9.294;2022-09-09T02:27:22;99201.75;;;23.31;71.46
18819;BME280;9537;45.594;9.294;2022-09-09T02:28:28;99202.56;;;23.32;71.64
18819;BME280;9537;45.594;9.294;2022-09-09T02:29:34;99200.16;;;23.30;71.75
18819;BME280;9537;45.594;9.294;2022-09-09T02:30:37;99196.13;;;23.33;71.69
18819;BME280;9537;45.594;9.294;2022-09-09T02:31:39;99194.22;;;23.33;71.59
18819;BME280;9537;45.594;9.294;2022-09-09T02:32:44;99179.66;;;23.34;71.62
18819;BME280;9537;45.594;9.294;2022-09-09T02:33:51;99178.59;;;23.35;71.69
18819;BME280;9537;45.594;9.294;2022-09-09T02:34:59;99185.84;;;23.35;71.44
18819;BME280;9537;45.594;9.294;2022-09-09T02:36:02;99187.22;;;23.32;71.77
18819;BME280;9537;45.594;9.294;2022-09-09T02:37:08;99186.13;;;23.28;72.14
18819;BME280;9537;45.594;9.294;2022-09-09T02:38:12;99186.13;;;23.28;72.01
18819;BME280;9537;45.594;9.294;2022-09-09T02:39:15;99190.47;;;23.29;71.96
18819;BME280;9537;45.594;9.294;2022-09-09T02:40:16;99180.47;;;23.30;72.08
18819;BME280;9537;45.594;9.294;2022-09-09T02:41:19;99177.50;;;23.31;72.02
18819;BME280;9537;45.594;9.294;2022-09-09T02:42:22;99181.28;;;23.30;72.12
18819;BME280;9537;45.594;9.294;2022-09-09T02:43:30;99176.44;;;23.32;72.02
18819;BME280;9537;45.594;9.294;2022-09-09T02:44:32;99172.66;;;23.28;71.94
18819;BME280;9537;45.594;9.294;2022-09-09T02:45:40;99169.16;;;23.28;71.99
18819;BME280;9537;45.594;9.294;2022-09-09T02:47:07;99172.09;;;23.26;72.15
18819;BME280;9537;45.594;9.294;2022-09-09T02:48:18;99162.97;;;23.27;72.18
18819;BME280;9537;45.594;9.294;2022-09-09T02:49:27;99160.00;;;23.29;72.01
18819;BME280;9537;45.594;9.294;2022-09-09T02:50:33;99161.31;;;23.26;72.10
18819;BME280;9537;45.594;9.294;2022-09-09T02:51:40;99162.16;;;23.27;72.07
18819;BME280;9537;45.594;9.294;2022-09-09T02:52:56;99171.59;;;23.24;72.25
18819;BME280;9537;45.594;9.294;2022-09-09T02:54:07;99171.84;;;23.23;72.32
18819;BME280;9537;45.594;9.294;2022-09-09T02:55:17;99175.34;;;23.23;71.98
18819;BME280;9537;45.594;9.294;2022-09-09T02:56:21;99178.88;;;23.24;72.25
18819;BME280;9537;45.594;9.294;2022-09-09T02:57:30;99186.94;;;23.24;72.10
18819;BME280;9537;45.594;9.294;2022-09-09T02:58:34;99183.41;;;23.23;72.27
18819;BME280;9537;45.594;9.294;2022-09-09T02:59:36;99181.28;;;23.25;72.20
18819;BME280;9537;45.594;9.294;2022-09-09T03:00:38;99175.09;;;23.25;72.28
18819;BME280;9537;45.594;9.294;2022-09-09T03:01:41;99177.78;;;23.25;72.32
18819;BME280;9537;45.594;9.294;2022-09-09T03:02:42;99170.50;;;23.25;72.04
18819;BME280;9537;45.594;9.294;2022-09-09T03:03:46;99166.72;;;23.26;71.83
18819;BME280;9537;45.594;9.294;2022-09-09T03:04:47;99161.88;;;23.28;71.76
18819;BME280;9537;45.594;9.294;2022-09-09T03:05:52;99161.63;;;23.30;70.99
18819;BME280;9537;45.594;9.294;2022-09-09T03:06:53;99169.41;;;23.31;70.56
18819;BME280;9537;45.594;9.294;2022-09-09T03:07:55;99175.09;;;23.30;70.85
18819;BME280;9537;45.594;9.294;2022-09-09T03:08:56;99177.78;;;23.30;71.34
18819;BME280;9537;45.594;9.294;2022-09-09T03:10:01;99176.44;;;23.32;71.77
18819;BME280;9537;45.594;9.294;2022-09-09T03:11:02;99173.47;;;23.34;71.70
18819;BME280;9537;45.594;9.294;2022-09-09T03:12:04;99164.28;;;23.35;71.73
18819;BME280;9537;45.594;9.294;2022-09-09T03:13:05;99160.53;;;23.36;71.35
18819;BME280;9537;45.594;9.294;2022-09-09T03:14:08;99162.44;;;23.35;71.29
18819;BME280;9537;45.594;9.294;2022-09-09T03:15:11;99155.97;;;23.36;71.49
18819;BME280;9537;45.594;9.294;2022-09-09T03:16:14;99150.56;;;23.36;71.87
18819;BME280;9537;45.594;9.294;2022-09-09T03:17:15;99147.88;;;23.36;71.68
18819;BME280;9537;45.594;9.294;2022-09-09T03:18:18;99156.50;;;23.38;71.56
18819;BME280;9537;45.594;9.294;2022-09-09T03:19:19;99156.22;;;23.40;71.45
18819;BME280;9537;45.594;9.294;2022-09-09T03:20:22;99151.91;;;23.39;71.24
18819;BME280;9537;45.594;9.294;2022-09-09T03:21:23;99145.44;;;23.40;70.89
18819;BME280;9537;45.594;9.294;2022-09-09T03:22:25;99146.78;;;23.43;70.39
18819;BME280;9537;45.594;9.294;2022-09-09T03:23:26;99140.59;;;23.42;70.10
18819;BME280;9537;45.594;9.294;2022-09-09T03:24:28;99149.50;;;23.43;69.85
18819;BME280;9537;45.594;9.294;2022-09-09T03:25:29;99147.59;;;23.43;69.93
18819;BME280;9537;45.594;9.294;2022-09-09T03:26:32;99151.13;;;23.44;69.55
18819;BME280;9537;45.594;9.294;2022-09-09T03:27:33;99155.13;;;23.46;69.57
18819;BME280;9537;45.594;9.294;2022-09-09T03:28:35;99162.16;;;23.47;69.54
18819;BME280;9537;45.594;9.294;2022-09-09T03:29:38;99157.56;;;23.48;69.36
18819;BME280;9537;45.594;9.294;2022-09-09T03:30:40;99156.50;;;23.49;69.13
18819;BME280;9537;45.594;9.294;2022-09-09T03:31:41;99154.59;;;23.49;69.25
18819;BME280;9537;45.594;9.294;2022-09-09T03:32:43;99157.28;;;23.49;69.03
18819;BME280;9537;45.594;9.294;2022-09-09T03:33:45;99161.63;;;23.50;68.80
18819;BME280;9537;45.594;9.294;2022-09-09T03:34:46;99160.00;;;23.49;69.24
18819;BME280;9537;45.594;9.294;2022-09-09T03:35:50;99170.50;;;23.51;69.07
18819;BME280;9537;45.594;9.294;2022-09-09T03:36:52;99166.75;;;23.47;69.08
18819;BME280;9537;45.594;9.294;2022-09-09T03:37:54;99173.22;;;23.51;68.84
18819;BME280;9537;45.594;9.294;2022-09-09T03:38:56;99178.06;;;23.49;69.25
18819;BME280;9537;45.594;9.294;2022-09-09T03:39:58;99180.22;;;23.47;69.71
18819;BME280;9537;45.594;9.294;2022-09-09T03:41:00;99172.69;;;23.44;70.03
18819;BME280;9537;45.594;9.294;2022-09-09T03:42:02;99170.53;;;23.35;70.63
18819;BME280;9537;45.594;9.294;2022-09-09T03:43:04;99176.72;;;23.41;70.42
18819;BME280;9537;45.594;9.294;2022-09-09T03:44:06;99164.59;;;23.38;70.77
18819;BME280;9537;45.594;9.294;2022-09-09T03:45:11;99162.16;;;23.37;70.81
18819;BME280;9537;45.594;9.294;2022-09-09T03:46:13;99157.56;;;23.37;71.08
18819;BME280;9537;45.594;9.294;2022-09-09T03:47:14;99168.34;;;23.37;71.11
18819;BME280;9537;45.594;9.294;2022-09-09T03:48:17;99167.81;;;23.41;71.37
18819;BME280;9537;45.594;9.294;2022-09-09T03:49:18;99159.19;;;23.38;70.90
18819;BME280;9537;45.594;9.294;2022-09-09T03:50:20;99160.81;;;23.39;70.98
18819;BME280;9537;45.594;9.294;2022-09-09T03:51:21;99168.63;;;23.41;70.87
18819;BME280;9537;45.594;9.294;2022-09-09T03:52:23;99172.94;;;23.42;70.33
18819;BME280;9537;45.594;9.294;2022-09-09T03:53:25;99173.75;;;23.43;69.91
18819;BME280;9537;45.594;9.294;2022-09-09T03:54:27;99171.59;;;23.45;69.98
18819;BME280;9537;45.594;9.294;2022-09-09T03:55:28;99168.63;;;23.46;69.44
18819;BME280;9537;45.594;9.294;2022-09-09T03:56:31;99165.13;;;23.46;69.54
18819;BME280;9537;45.594;9.294;2022-09-09T03:57:32;99159.47;;;23.47;69.42
18819;BME280;9537;45.594;9.294;2022-09-09T03:58:36;99162.69;;;23.49;69.43
18819;BME280;9537;45.594;9.294;2022-09-09T03:59:37;99163.78;;;23.48;69.39
18819;BME280;9537;45.594;9.294;2022-09-09T04:00:41;99163.53;;;23.50;69.41
18819;BME280;9537;45.594;9.294;2022-09-09T04:01:45;99164.03;;;23.57;69.19
18819;BME280;9537;45.594;9.294;2022-09-09T04:02:47;99159.75;;;23.56;69.81
18819;BME280;9537;45.594;9.294;2022-09-09T04:03:50;99154.59;;;23.54;69.92
18819;BME280;9537;45.594;9.294;2022-09-09T04:04:53;99154.59;;;23.49;70.45
18819;BME280;9537;45.594;9.294;2022-09-09T04:05:56;99155.69;;;23.48;70.68
18819;BME280;9537;45.594;9.294;2022-09-09T04:06:59;99151.38;;;23.47;71.04
18819;BME280;9537;45.594;9.294;2022-09-09T04:08:00;99147.59;;;23.48;71.54
18819;BME280;9537;45.594;9.294;2022-09-09T04:09:02;99151.38;;;23.47;72.35
18819;BME280;9537;45.594;9.294;2022-09-09T04:10:05;99154.09;;;23.47;72.59
18819;BME280;9537;45.594;9.294;2022-09-09T04:11:08;99154.88;;;23.48;72.54
18819;BME280;9537;45.594;9.294;2022-09-09T04:12:09;99160.53;;;23.46;72.64
18819;BME280;9537;45.594;9.294;2022-09-09T04:13:13;99155.44;;;23.45;73.46
18819;BME280;9537;45.594;9.294;2022-09-09T04:14:17;99172.94;;;23.42;73.31
18819;BME280;9537;45.594;9.294;2022-09-09T04:15:18;99174.56;;;23.38;73.61
18819;BME280;9537;45.594;9.294;2022-09-09T04:16:21;99174.56;;;23.38;73.73
18819;BME280;9537;45.594;9.294;2022-09-09T04:17:23;99171.31;;;23.36;74.51
18819;BME280;9537;45.594;9.294;2022-09-09T04:18:25;99179.66;;;23.34;74.83
18819;BME280;9537;45.594;9.294;2022-09-09T04:19:28;99183.44;;;23.33;75.12
18819;BME280;9537;45.594;9.294;2022-09-09T04:20:29;99179.94;;;23.33;75.14
18819;BME280;9537;45.594;9.294;2022-09-09T04:21:31;99179.69;;;23.29;75.57
18819;BME280;9537;45.594;9.294;2022-09-09T04:22:32;99182.38;;;23.29;75.93
18819;BME280;9537;45.594;9.294;2022-09-09T04:23:34;99183.44;;;23.28;76.24
18819;BME280;9537;45.594;9.294;2022-09-09T04:24:36;99180.19;;;23.26;76.60
18819;BME280;9537;45.594;9.294;2022-09-09T04:25:43;99184.78;;;23.26;76.86
18819;BME280;9537;45.594;9.294;2022-09-09T04:26:45;99188.56;;;23.25;77.00
18819;BME280;9537;45.594;9.294;2022-09-09T04:27:47;99185.59;;;23.21;77.18
18819;BME280;9537;45.594;9.294;2022-09-09T04:28:53;99187.44;;;23.21;77.39
18819;BME280;9537;45.594;9.294;2022-09-09T04:29:56;99187.19;;;23.22;77.54
18819;BME280;9537;45.594;9.294;2022-09-09T04:31:04;99188.56;;;23.25;77.20
18819;BME280;9537;45.594;9.294;2022-09-09T04:32:07;99194.75;;;23.25;77.77
18819;BME280;9537;45.594;9.294;2022-09-09T04:33:09;99196.63;;;23.25;77.84
18819;BME280;9537;45.594;9.294;2022-09-09T04:34:11;99200.94;;;23.26;77.93
18819;BME280;9537;45.594;9.294;2022-09-09T04:35:12;99200.13;;;23.25;77.41
18819;BME280;9537;45.594;9.294;2022-09-09T04:36:14;99202.81;;;23.25;77.50
18819;BME280;9537;45.594;9.294;2022-09-09T04:37:15;99207.16;;;23.21;78.09
18819;BME280;9537;45.594;9.294;2022-09-09T04:38:17;99209.56;;;23.23;78.17
18819;BME280;9537;45.594;9.294;2022-09-09T04:39:19;99209.03;;;23.15;78.85
18819;BME280;9537;45.594;9.294;2022-09-09T04:40:21;99213.59;;;23.15;78.76
18819;BME280;9537;45.594;9.294;2022-09-09T04:41:23;99214.41;;;23.15;78.46
18819;BME280;9537;45.594;9.294;2022-09-09T04:42:25;99217.63;;;23.12;78.55
18819;BME280;9537;45.594;9.294;2022-09-09T04:43:28;99213.31;;;23.11;78.97
18819;BME280;9537;45.594;9.294;2022-09-09T04:44:31;99216.28;;;23.10;78.82
18819;BME280;9537;45.594;9.294;2022-09-09T04:45:32;99214.94;;;23.12;78.80
18819;BME280;9537;45.594;9.294;2022-09-09T04:46:34;99217.09;;;23.10;78.57
18819;BME280;9537;45.594;9.294;2022-09-09T04:47:37;99220.84;;;23.09;78.71
18819;BME280;9537;45.594;9.294;2022-09-09T04:48:38;99223.28;;;23.11;77.67
18819;BME280;9537;45.594;9.294;2022-09-09T04:49:41;99224.59;;;23.08;77.13
18819;BME280;9537;45.594;9.294;2022-09-09T04:50:41;99221.38;;;23.06;76.69
18819;BME280;9537;45.594;9.294;2022-09-09T04:51:43;99224.34;;;23.05;75.96
18819;BME280;9537;45.594;9.294;2022-09-09T04:52:45;99218.66;;;23.06;75.91
18819;BME280;9537;45.594;9.294;2022-09-09T04:53:47;99217.59;;;23.02;75.17
18819;BME280;9537;45.594;9.294;2022-09-09T04:54:51;99220.75;;;22.94;74.27
18819;BME280;9537;45.594;9.294;2022-09-09T04:56:00;99228.84;;;22.94;73.70
18819;BME280;9537;45.594;9.294;2022-09-09T04:57:02;99228.03;;;22.93;73.74
18819;BME280;9537;45.594;9.294;2022-09-09T04:58:06;99231.88;;;23.03;73.14
18819;BME280;9537;45.594;9.294;2022-09-09T04:59:07;99229.44;;;22.96;72.80
18819;BME280;9537;45.594;9.294;2022-09-09T05:00:11;99233.16;;;22.90;72.66
18819;BME280;9537;45.594;9.294;2022-09-09T05:01:16;99235.56;;;22.86;72.25
18819;BME280;9537;45.594;9.294;2022-09-09T05:02:18;99237.16;;;22.82;72.52
18819;BME280;9537;45.594;9.294;2022-09-09T05:03:21;99233.09;;;22.80;72.71
18819;BME280;9537;45.594;9.294;2022-09-09T05:04:23;99234.72;;;22.76;73.20
18819;BME280;9537;45.594;9.294;2022-09-09T05:05:24;99234.44;;;22.77;73.02
18819;BME280;9537;45.594;9.294;2022-09-09T05:06:27;99243.59;;;22.76;73.18
18819;BME280;9537;45.594;9.294;2022-09-09T05:07:28;99237.66;;;22.74;73.05
18819;BME280;9537;45.594;9.294;2022-09-09T05:08:31;99250.59;;;22.77;73.06
18819;BME280;9537;45.594;9.294;2022-09-09T05:09:33;99250.91;;;22.81;73.02
18819;BME280;9537;45.594;9.294;2022-09-09T05:10:37;99253.06;;;22.84;71.67
18819;BME280;9537;45.594;9.294;2022-09-09T05:11:38;99270.53;;;22.81;71.97
18819;BME280;9537;45.594;9.294;2022-09-09T05:12:40;99265.97;;;22.82;70.61
18819;BME280;9537;45.594;9.294;2022-09-09T05:13:41;99271.31;;;22.77;70.86
18819;BME280;9537;45.594;9.294;2022-09-09T05:14:43;99263.53;;;22.80;71.18
18819;BME280;9537;45.594;9.294;2022-09-09T05:15:51;99261.91;;;22.79;70.55
18819;BME280;9537;45.594;9.294;2022-09-09T05:16:53;99259.75;;;22.76;70.47
18819;BME280;9537;45.594;9.294;2022-09-09T05:17:56;99260.81;;;22.70;70.40
18819;BME280;9537;45.594;9.294;2022-09-09T05:19:01;99259.72;;;22.71;70.50
18819;BME280;9537;45.594;9.294;2022-09-09T05:20:04;99261.34;;;22.72;70.25
18819;BME280;9537;45.594;9.294;2022-09-09T05:21:06;99262.13;;;22.67;70.10
18819;BME280;9537;45.594;9.294;2022-09-09T05:22:07;99262.66;;;22.64;70.32
18819;BME280;9537;45.594;9.294;2022-09-09T05:23:09;99268.28;;;22.58;70.78
18819;BME280;9537;45.594;9.294;2022-09-09T05:24:12;99267.72;;;22.56;71.14
18819;BME280;9537;45.594;9.294;2022-09-09T05:25:14;99266.34;;;22.53;71.34
18819;BME280;9537;45.594;9.294;2022-09-09T05:26:16;99263.69;;;22.58;70.30
18819;BME280;9537;45.594;9.294;2022-09-09T05:27:18;99261.25;;;22.57;69.55
18819;BME280;9537;45.594;9.294;2022-09-09T05:28:20;99270.63;;;22.49;70.02
18819;BME280;9537;45.594;9.294;2022-09-09T05:29:22;99266.84;;;22.45;70.20
18819;BME280;9537;45.594;9.294;2022-09-09T05:30:24;99266.59;;;22.46;70.24
18819;BME280;9537;45.594;9.294;2022-09-09T05:31:26;99265.53;;;22.47;70.10
18819;BME280;9537;45.594;9.294;2022-09-09T05:32:30;99266.59;;;22.46;70.02
18819;BME280;9537;45.594;9.294;2022-09-09T05:33:34;99267.41;;;22.47;69.99
18819;BME280;9537;45.594;9.294;2022-09-09T05:34:36;99276.53;;;22.46;69.93
18819;BME280;9537;45.594;9.294;2022-09-09T05:35:39;99272.78;;;22.47;70.02
18819;BME280;9537;45.594;9.294;2022-09-09T05:36:41;99270.63;;;22.44;69.77
18819;BME280;9537;45.594;9.294;2022-09-09T05:37:44;99271.38;;;22.39;70.28
18819;BME280;9537;45.594;9.294;2022-09-09T05:38:46;99271.38;;;22.39;71.01
18819;BME280;9537;45.594;9.294;2022-09-09T05:39:48;99276.78;;;22.39;71.17
18819;BME280;9537;45.594;9.294;2022-09-09T05:40:51;99280.22;;;22.35;72.17
18819;BME280;9537;45.594;9.294;2022-09-09T05:41:52;99274.88;;;22.40;71.80
18819;BME280;9537;45.594;9.294;2022-09-09T05:43:00;99275.16;;;22.38;71.80
18819;BME280;9537;45.594;9.294;2022-09-09T05:44:01;99277.84;;;22.38;71.93
18819;BME280;9537;45.594;9.294;2022-09-09T05:45:04;99278.91;;;22.37;71.80
18819;BME280;9537;45.594;9.294;2022-09-09T05:46:07;99275.69;;;22.40;71.59
18819;BME280;9537;45.594;9.294;2022-09-09T05:47:09;99282.16;;;22.39;71.35
18819;BME280;9537;45.594;9.294;2022-09-09T05:48:10;99277.84;;;22.38;71.36